createdAt,value
2019-01-19T00:00:29.196Z,77.89
2019-01-19T00:03:22.238Z,77.88
2019-01-19T00:07:01.493Z,78.14
2019-01-19T00:10:44.390Z,78.03
2019-01-19T00:14:02.708Z,78.13
2019-01-19T00:17:47.982Z,78.10
2019-01-19T00:20:57.397Z,78.20
2019-01-19T00:24:33.543Z,78.03
2019-01-19T00:27:40.902Z,78.02
2019-01-19T00:31:12.982Z,78.44
2019-01-19T00:34:50.049Z,78.70
2019-01-19T00:40:51.952Z,78.96
2019-01-19T00:43:51.034Z,79.01
2019-01-19T00:47:22.416Z,79.25
2019-01-19T00:50:23.788Z,79.57
2019-01-19T00:53:17.800Z,79.89
2019-01-19T00:56:30.643Z,79.96
2019-01-19T00:59:08.975Z,80.21
2019-01-19T01:03:00.393Z,80.38
2019-01-19T01:06:37.867Z,80.15
2019-01-19T01:10:11.646Z,79.98
2019-01-19T01:13:30.314Z,80.03
2019-01-19T01:16:41.862Z,80.00
2019-01-19T01:20:11.293Z,79.88
2019-01-19T01:23:20.671Z,80.00
2019-01-19T01:26:39.821Z,79.95
2019-01-19T01:30:21.661Z,80.08
2019-01-19T01:37:31.641Z,80.07
2019-01-19T01:40:54.877Z,80.36
2019-01-19T01:44:18.656Z,80.33
2019-01-19T01:48:06.633Z,80.50
2019-01-19T01:51:53.497Z,80.60
2019-01-19T01:55:39.301Z,80.66
2019-01-19T01:59:06.498Z,80.81
2019-01-19T02:02:42.375Z,80.75
2019-01-19T02:06:21.907Z,80.81
2019-01-19T02:09:32.341Z,80.92
2019-01-19T02:12:52.106Z,80.74
2019-01-19T02:16:14.398Z,80.85
2019-01-19T02:19:22.600Z,80.92
2019-01-19T02:22:38.425Z,81.06
2019-01-19T02:26:04.119Z,81.10
2019-01-19T02:29:24.089Z,81.25
2019-01-19T02:33:03.850Z,81.35
2019-01-19T02:36:19.213Z,81.46
2019-01-19T02:39:41.373Z,81.54
2019-01-19T02:43:15.640Z,81.88
2019-01-19T02:46:52.780Z,81.81
2019-01-19T02:50:47.516Z,81.72
2019-01-19T02:53:51.823Z,81.74
2019-01-19T02:57:49.689Z,81.86
2019-01-19T03:01:05.827Z,81.99
2019-01-19T03:04:26.162Z,82.09
2019-01-19T03:07:49.812Z,82.08
2019-01-19T03:15:35.058Z,82.03
2019-01-19T03:19:04.859Z,82.13
2019-01-19T03:22:31.681Z,82.20
2019-01-19T03:25:33.036Z,82.34
2019-01-19T03:28:40.884Z,82.35
2019-01-19T03:32:19.716Z,82.38
2019-01-19T03:35:20.497Z,82.37
2019-01-19T03:38:56.488Z,82.37
2019-01-19T03:42:30.042Z,82.41
2019-01-19T03:46:08.334Z,82.55
2019-01-19T03:49:53.507Z,82.44
2019-01-19T03:53:24.657Z,82.38
2019-01-19T03:56:51.191Z,82.66
2019-01-19T04:00:02.879Z,82.45
2019-01-19T04:03:26.852Z,82.59
2019-01-19T04:06:43.649Z,82.88
2019-01-19T04:10:13.083Z,82.74
2019-01-19T04:14:08.460Z,83.10
2019-01-19T04:17:44.366Z,83.20
2019-01-19T04:20:44.765Z,83.40
2019-01-19T04:23:15.561Z,83.32
2019-01-19T04:26:00.892Z,83.10
2019-01-19T04:28:32.431Z,83.10
2019-01-19T04:31:03.333Z,83.02
2019-01-19T04:33:33.899Z,83.08
2019-01-19T04:36:04.518Z,83.08
2019-01-19T04:38:37.098Z,83.13
2019-01-19T04:41:07.615Z,83.43
2019-01-19T04:43:38.589Z,83.20
2019-01-19T04:46:09.562Z,83.27
2019-01-19T04:48:40.545Z,84.14
2019-01-19T04:51:11.162Z,84.30
2019-01-19T04:53:41.792Z,84.65
2019-01-19T04:56:12.384Z,84.80
2019-01-19T04:58:43.483Z,84.64
2019-01-19T05:01:14.391Z,84.18
2019-01-19T05:03:44.991Z,84.12
2019-01-19T05:06:15.572Z,84.14
2019-01-19T05:08:46.227Z,84.01
2019-01-19T05:11:16.770Z,84.12
2019-01-19T05:13:47.407Z,83.61
2019-01-19T05:16:18.001Z,83.45
2019-01-19T05:18:48.538Z,83.42
2019-01-19T05:21:19.735Z,83.73
2019-01-19T05:23:50.876Z,84.00
2019-01-19T05:26:21.393Z,84.09
2019-01-19T05:28:52.250Z,83.99
2019-01-19T05:31:22.815Z,84.04
2019-01-19T05:33:53.329Z,84.28
2019-01-19T05:36:23.849Z,83.84
2019-01-19T05:38:54.423Z,83.72
2019-01-19T05:41:25.475Z,83.88
2019-01-19T05:43:56.045Z,84.08
2019-01-19T05:46:27.253Z,84.08
2019-01-19T05:48:58.309Z,83.98
2019-01-19T05:51:28.829Z,84.18
2019-01-19T05:53:59.770Z,84.16
2019-01-19T05:56:30.586Z,84.17
2019-01-19T05:59:02.128Z,84.33
2019-01-19T06:01:33.757Z,84.41
2019-01-19T06:04:04.453Z,84.36
2019-01-19T06:06:37.347Z,84.60
2019-01-19T06:09:09.716Z,84.46
2019-01-19T06:11:40.382Z,84.47
2019-01-19T06:14:10.936Z,84.31
2019-01-19T06:16:41.847Z,84.17
2019-01-19T06:19:13.466Z,84.26
2019-01-19T06:22:09.499Z,84.50
2019-01-19T06:24:40.136Z,84.40
2019-01-19T06:27:10.737Z,84.28
2019-01-19T06:29:41.735Z,84.39
2019-01-19T06:32:12.372Z,84.60
2019-01-19T06:34:43.004Z,84.87
2019-01-19T06:37:13.669Z,84.68
2019-01-19T06:39:44.874Z,84.86
2019-01-19T06:42:15.625Z,84.73
2019-01-19T06:44:46.693Z,84.68
2019-01-19T06:47:17.400Z,84.41
2019-01-19T06:49:48.443Z,84.72
2019-01-19T06:52:19.491Z,84.61
2019-01-19T06:54:50.481Z,84.64
2019-01-19T06:57:21.205Z,84.65
2019-01-19T06:59:52.286Z,84.87
2019-01-19T07:02:23.451Z,84.86
2019-01-19T07:04:54.172Z,85.55
2019-01-19T07:07:24.821Z,85.50
2019-01-19T07:09:55.733Z,85.65
2019-01-19T07:12:26.648Z,85.57
2019-01-19T07:14:57.434Z,85.69
2019-01-19T07:17:28.110Z,85.74
2019-01-19T07:19:59.083Z,85.53
2019-01-19T07:22:31.091Z,85.52
2019-01-19T07:25:02.371Z,85.54
2019-01-19T07:27:33.436Z,85.27
2019-01-19T07:30:04.236Z,85.42
2019-01-19T07:32:35.232Z,85.36
2019-01-19T07:35:06.046Z,85.67
2019-01-19T07:37:36.807Z,85.69
2019-01-19T07:40:09.523Z,85.60
2019-01-19T07:42:41.262Z,85.64
2019-01-19T07:45:12.417Z,85.83
2019-01-19T07:47:43.498Z,85.82
2019-01-19T07:50:18.525Z,85.69
2019-01-19T07:52:49.283Z,85.72
2019-01-19T07:55:19.961Z,85.83
2019-01-19T07:57:50.916Z,86.00
2019-01-19T08:00:28.087Z,86.03
2019-01-19T08:02:59.085Z,85.73
2019-01-19T08:05:29.761Z,86.37
2019-01-19T08:08:00.825Z,86.64
2019-01-19T08:10:31.457Z,86.52
2019-01-19T08:13:02.471Z,86.33
2019-01-19T08:15:33.463Z,86.61
2019-01-19T08:18:04.103Z,86.29
2019-01-19T08:20:35.031Z,86.35
2019-01-19T08:23:06.028Z,86.67
2019-01-19T08:25:36.667Z,86.85
2019-01-19T08:28:07.315Z,87.00
2019-01-19T08:30:38.252Z,86.88
2019-01-19T08:33:09.264Z,86.91
2019-01-19T08:35:40.458Z,86.59
2019-01-19T08:38:12.153Z,86.53
2019-01-19T08:40:43.308Z,86.11
2019-01-19T08:43:23.167Z,85.66
2019-01-19T08:45:53.852Z,85.52
2019-01-19T08:48:24.787Z,84.96
2019-01-19T08:50:55.885Z,84.22
2019-01-19T08:53:26.546Z,83.66
2019-01-19T08:55:57.469Z,82.90
2019-01-19T08:58:28.674Z,82.69
2019-01-19T09:00:59.957Z,82.36
2019-01-19T09:03:30.604Z,82.43
2019-01-19T09:06:01.328Z,82.10
2019-01-19T09:08:32.356Z,81.83
2019-01-19T09:11:03.057Z,81.56
2019-01-19T09:13:33.699Z,81.38
2019-01-19T09:16:26.461Z,81.18
2019-01-19T09:18:57.082Z,81.05
2019-01-19T09:21:30.627Z,80.77
2019-01-19T09:24:02.965Z,80.41
2019-01-19T09:26:33.577Z,80.07
2019-01-19T09:29:04.306Z,78.95
2019-01-19T09:31:35.095Z,78.95
2019-01-19T09:34:05.796Z,78.77
2019-01-19T09:36:36.821Z,78.52
2019-01-19T09:39:11.897Z,78.35
2019-01-19T09:41:42.530Z,77.88
2019-01-19T09:44:13.167Z,76.96
2019-01-19T09:46:43.822Z,76.52
2019-01-19T09:49:14.425Z,76.20
2019-01-19T09:51:45.065Z,75.60
2019-01-19T09:54:16.390Z,75.08
2019-01-19T09:56:47.347Z,74.67
2019-01-19T09:59:18.303Z,74.87
2019-01-19T10:01:49.283Z,74.80
2019-01-19T10:04:19.981Z,73.97
2019-01-19T10:06:50.666Z,73.40
2019-01-19T10:09:21.368Z,72.75
2019-01-19T10:11:52.000Z,71.75
2019-01-19T10:14:22.928Z,71.02
2019-01-19T10:16:53.942Z,70.54
2019-01-19T10:19:24.585Z,69.50
2019-01-19T10:21:55.235Z,68.59
2019-01-19T10:24:25.977Z,67.44
2019-01-19T10:26:56.622Z,66.42
2019-01-19T10:29:28.047Z,66.16
2019-01-19T10:31:59.455Z,66.40
2019-01-19T10:34:30.466Z,66.32
2019-01-19T10:37:01.029Z,65.42
2019-01-19T10:39:31.703Z,65.08
2019-01-19T10:42:03.205Z,64.40
2019-01-19T10:44:34.296Z,63.94
2019-01-19T10:47:04.927Z,63.49
2019-01-19T10:49:35.594Z,62.87
2019-01-19T10:52:06.298Z,62.62
2019-01-19T10:54:37.046Z,62.08
2019-01-19T10:57:08.046Z,62.48
2019-01-19T10:59:38.677Z,61.45
2019-01-19T11:02:09.661Z,61.55
2019-01-19T11:04:40.687Z,61.16
2019-01-19T11:07:11.858Z,61.27
2019-01-19T11:09:42.827Z,61.01
2019-01-19T11:12:13.838Z,60.14
2019-01-19T11:14:44.594Z,59.40
2019-01-19T11:17:15.412Z,59.80
2019-01-19T11:19:46.058Z,59.09
2019-01-19T11:22:16.797Z,62.45
2019-01-19T11:24:47.865Z,59.97
2019-01-19T11:27:18.882Z,62.26
2019-01-19T11:29:49.782Z,59.20
2019-01-19T11:32:24.572Z,61.39
2019-01-19T11:34:55.197Z,60.02
2019-01-19T11:37:26.150Z,59.83
2019-01-19T11:39:56.809Z,59.76
2019-01-19T11:42:27.413Z,58.21
2019-01-19T11:44:58.038Z,60.00
2019-01-19T11:47:29.300Z,58.88
2019-01-19T11:50:00.302Z,58.72
2019-01-19T11:52:30.935Z,59.73
2019-01-19T11:55:02.684Z,58.99
2019-01-19T11:57:33.343Z,61.31
2019-01-19T12:00:04.061Z,59.08
2019-01-19T12:02:37.110Z,58.65
2019-01-19T12:05:07.474Z,59.25
2019-01-19T12:07:38.214Z,58.70
2019-01-19T12:10:12.957Z,56.35
2019-01-19T12:12:43.704Z,58.35
2019-01-19T12:15:14.348Z,59.01
2019-01-19T12:17:45.037Z,58.30
2019-01-19T12:20:28.774Z,60.72
2019-01-19T12:22:59.461Z,59.96
2019-01-19T12:25:30.222Z,58.28
2019-01-19T12:28:01.501Z,58.16
2019-01-19T12:30:33.020Z,59.42
2019-01-19T12:33:03.986Z,59.28
2019-01-19T12:35:34.974Z,59.65
2019-01-19T12:38:05.728Z,56.99
2019-01-19T12:40:36.482Z,57.12
2019-01-19T12:43:14.919Z,58.00
2019-01-19T12:45:58.933Z,57.50
2019-01-19T12:48:30.107Z,57.78
2019-01-19T12:51:01.930Z,59.07
2019-01-19T12:53:32.657Z,58.71
2019-01-19T12:56:03.982Z,57.95
2019-01-19T12:58:34.593Z,57.64
2019-01-19T13:01:05.563Z,59.26
2019-01-19T13:03:36.512Z,58.71
2019-01-19T13:06:36.310Z,60.24
2019-01-19T13:09:15.585Z,60.05
2019-01-19T13:12:34.759Z,59.99
2019-01-19T13:16:10.826Z,60.17
2019-01-19T13:19:45.598Z,60.18
2019-01-19T13:23:06.928Z,61.73
2019-01-19T13:26:50.362Z,61.10
2019-01-19T13:30:23.832Z,60.41
2019-01-19T13:33:31.806Z,61.41
2019-01-19T13:36:39.010Z,61.56
2019-01-19T13:40:13.659Z,62.71
2019-01-19T13:43:54.731Z,63.01
2019-01-19T13:47:39.214Z,61.97
2019-01-19T13:50:50.661Z,62.69
2019-01-19T13:54:05.223Z,63.48
2019-01-19T13:57:27.188Z,63.77
2019-01-19T14:00:59.235Z,64.05
2019-01-19T14:04:36.847Z,63.56
2019-01-19T14:07:39.963Z,65.33
2019-01-19T14:11:01.584Z,66.40
2019-01-19T14:14:41.114Z,66.93
2019-01-19T14:18:01.409Z,66.94
2019-01-19T14:21:30.787Z,67.75
2019-01-19T14:25:14.629Z,68.06
2019-01-19T14:28:33.353Z,68.01
2019-01-19T14:32:23.519Z,68.34
2019-01-19T14:36:00.793Z,68.90
2019-01-19T14:39:46.100Z,69.56
2019-01-19T14:42:34.402Z,69.95
2019-01-19T14:45:49.704Z,70.16
2019-01-19T14:49:43.140Z,70.49
2019-01-19T14:52:45.837Z,70.42
2019-01-19T14:56:06.704Z,70.93
2019-01-19T14:59:30.874Z,71.17
2019-01-19T15:03:00.367Z,71.56
2019-01-19T15:06:54.868Z,71.89
2019-01-19T15:10:09.690Z,71.70
2019-01-19T15:13:24.195Z,72.12
2019-01-19T15:16:39.643Z,72.20
2019-01-19T15:19:55.793Z,72.41
2019-01-19T15:23:30.556Z,72.82
2019-01-19T15:26:43.110Z,72.91
2019-01-19T15:30:15.120Z,73.17
2019-01-19T15:33:43.933Z,73.15
2019-01-19T15:36:47.894Z,73.27
2019-01-19T15:39:49.654Z,73.62
2019-01-19T15:43:24.023Z,74.21
2019-01-19T15:46:54.544Z,74.41
2019-01-19T15:50:24.425Z,75.03
2019-01-19T15:53:16.750Z,76.11
2019-01-19T15:56:45.984Z,76.11
2019-01-19T16:00:05.415Z,76.48
2019-01-19T16:03:18.979Z,76.86
2019-01-19T16:06:53.858Z,76.66
2019-01-19T16:10:07.678Z,76.84
2019-01-19T16:13:36.081Z,77.20
2019-01-19T16:16:54.836Z,77.40
2019-01-19T16:20:28.708Z,77.41
2019-01-19T16:23:48.222Z,77.35
2019-01-19T16:27:28.560Z,77.57
2019-01-19T16:30:57.334Z,77.53
2019-01-19T16:34:24.319Z,77.61
2019-01-19T16:37:44.883Z,77.62
2019-01-19T16:40:39.065Z,77.73
2019-01-19T16:43:30.077Z,77.48
2019-01-19T16:46:49.253Z,77.70
2019-01-19T16:50:06.214Z,77.97
2019-01-19T16:53:29.392Z,78.17
2019-01-19T16:56:31.637Z,78.79
2019-01-19T17:00:08.303Z,79.17
2019-01-19T17:03:30.291Z,79.79
2019-01-19T17:06:48.559Z,79.73
2019-01-19T17:10:00.793Z,80.01
2019-01-19T17:13:30.646Z,80.29
2019-01-19T17:16:54.480Z,80.19
2019-01-19T17:20:24.894Z,80.81
2019-01-19T17:23:49.622Z,81.20
2019-01-19T17:27:07.546Z,81.19
2019-01-19T17:30:33.314Z,81.63
2019-01-19T17:33:39.594Z,81.91
2019-01-19T17:36:31.299Z,81.83
2019-01-19T17:39:40.623Z,81.96
2019-01-19T17:42:27.197Z,82.45
2019-01-19T17:45:29.346Z,82.43
2019-01-19T17:48:33.935Z,82.43
2019-01-19T17:51:46.241Z,82.59
2019-01-19T17:55:04.945Z,82.67
2019-01-19T17:58:31.027Z,82.50
2019-01-19T18:01:45.137Z,82.66
2019-01-19T18:04:50.686Z,82.39
2019-01-19T18:08:07.933Z,82.88
2019-01-19T18:11:26.758Z,82.75
2019-01-19T18:14:39.603Z,82.71
2019-01-19T18:18:11.244Z,82.97
2019-01-19T18:21:39.038Z,82.97
2019-01-19T18:24:55.684Z,83.43
2019-01-19T18:28:17.009Z,83.15
2019-01-19T18:31:40.712Z,83.52
2019-01-19T18:35:01.866Z,83.62
2019-01-19T18:38:37.760Z,83.45
2019-01-19T18:41:34.346Z,83.53
2019-01-19T18:44:45.270Z,83.74
2019-01-19T18:48:05.531Z,83.67
2019-01-19T18:51:28.292Z,83.42
2019-01-19T18:55:01.938Z,83.76
2019-01-19T18:58:33.913Z,83.65
2019-01-19T19:02:12.174Z,83.83
2019-01-19T19:05:19.726Z,83.78
2019-01-19T19:08:32.118Z,83.82
2019-01-19T19:12:05.812Z,84.09
2019-01-19T19:15:43.538Z,83.79
2019-01-19T19:19:08.494Z,83.62
2019-01-19T19:22:48.798Z,83.63
2019-01-19T19:30:23.155Z,83.91
2019-01-19T19:33:38.612Z,83.93
2019-01-19T19:36:45.149Z,84.08
2019-01-19T19:40:32.501Z,84.17
2019-01-19T19:43:36.813Z,84.56
2019-01-19T19:47:02.365Z,84.48
2019-01-19T19:50:22.094Z,84.56
2019-01-19T19:52:53.118Z,84.63
2019-01-19T19:55:22.150Z,84.67
2019-01-19T19:57:53.664Z,84.87
2019-01-19T20:00:25.246Z,84.77
2019-01-19T20:02:56.396Z,84.96
2019-01-19T20:05:27.451Z,84.94
2019-01-19T20:07:58.168Z,84.83
2019-01-19T20:10:28.809Z,85.11
2019-01-19T20:12:59.530Z,85.16
2019-01-19T20:15:30.281Z,85.16
2019-01-19T20:18:01.273Z,85.01
2019-01-19T20:20:32.239Z,85.35
2019-01-19T20:23:03.248Z,85.26
2019-01-19T20:25:34.349Z,85.29
2019-01-19T20:28:05.473Z,85.22
2019-01-19T20:30:37.190Z,84.98
2019-01-19T20:33:08.190Z,84.75
2019-01-19T20:35:39.622Z,84.95
2019-01-19T20:38:10.779Z,84.93
2019-01-19T20:40:42.185Z,84.79
2019-01-19T20:43:13.308Z,84.84
2019-01-19T20:45:44.348Z,84.98
2019-01-19T20:48:15.783Z,84.87
2019-01-19T20:50:46.884Z,84.88
2019-01-19T20:53:17.688Z,84.93
2019-01-19T20:55:48.478Z,84.98
2019-01-19T20:58:19.958Z,84.79
2019-01-19T21:00:50.619Z,84.75
2019-01-19T21:03:22.444Z,85.07
2019-01-19T21:05:53.537Z,85.32
2019-01-19T21:08:24.673Z,85.54
2019-01-19T21:10:56.157Z,85.54
2019-01-19T21:13:27.291Z,85.91
2019-01-19T21:15:58.724Z,86.04
2019-01-19T21:18:32.814Z,85.76
2019-01-19T21:21:04.322Z,86.17
2019-01-19T21:23:35.742Z,86.15
2019-01-19T21:26:06.858Z,85.98
2019-01-19T21:28:38.203Z,86.27
2019-01-19T21:31:09.611Z,86.46
2019-01-19T21:33:41.272Z,86.70
2019-01-19T21:36:12.353Z,86.53
2019-01-19T21:38:43.295Z,86.36
2019-01-19T21:41:14.020Z,86.55
2019-01-19T21:43:45.326Z,86.50
2019-01-19T21:46:16.244Z,86.59
2019-01-19T21:48:47.122Z,86.48
2019-01-19T21:51:18.125Z,86.79
2019-01-19T21:53:49.097Z,86.65
2019-01-19T21:56:19.950Z,86.72
2019-01-19T21:58:50.983Z,86.64
2019-01-19T22:01:21.954Z,86.77
2019-01-19T22:03:53.382Z,86.70
2019-01-19T22:06:24.465Z,86.85
2019-01-19T22:08:55.501Z,87.22
2019-01-19T22:11:27.020Z,87.28
2019-01-19T22:13:58.114Z,87.20
2019-01-19T22:16:29.136Z,87.52
2019-01-19T22:19:00.524Z,87.47
2019-01-19T22:21:31.638Z,87.70
2019-01-19T22:24:03.097Z,87.66
2019-01-19T22:26:35.319Z,87.82
2019-01-19T22:29:06.959Z,87.63
2019-01-19T22:31:37.668Z,87.76
2019-01-19T22:34:08.329Z,87.47
2019-01-19T22:36:39.471Z,87.71
2019-01-19T22:39:10.854Z,87.68
2019-01-19T22:41:42.089Z,87.60
2019-01-19T22:44:13.089Z,87.59
2019-01-19T22:46:44.165Z,87.54
2019-01-19T22:49:15.306Z,87.43
2019-01-19T22:51:47.026Z,87.72
2019-01-19T22:54:18.742Z,87.77
2019-01-19T22:56:49.853Z,88.11
2019-01-19T22:59:20.945Z,88.36
2019-01-19T23:02:02.744Z,88.33
2019-01-19T23:04:35.847Z,88.49
2019-01-19T23:07:07.135Z,88.37
2019-01-19T23:09:38.114Z,88.42
2019-01-19T23:12:08.711Z,88.49
2019-01-19T23:14:39.874Z,88.56
2019-01-19T23:17:10.947Z,88.41
2019-01-19T23:19:42.638Z,88.70
2019-01-19T23:22:14.126Z,88.80
2019-01-19T23:24:46.017Z,88.83
2019-01-19T23:27:17.159Z,88.95
2019-01-19T23:29:48.671Z,89.00
2019-01-19T23:32:20.169Z,88.94
2019-01-19T23:34:51.253Z,88.94
2019-01-19T23:37:22.300Z,88.95
2019-01-19T23:39:53.682Z,88.86
2019-01-19T23:42:25.122Z,88.75
2019-01-19T23:44:56.490Z,88.79
2019-01-19T23:47:27.663Z,88.54
2019-01-19T23:49:58.360Z,88.61
2019-01-19T23:52:29.066Z,88.58
2019-01-19T23:55:00.179Z,88.38
2019-01-19T23:57:31.507Z,88.34
